sensor_id;sensor_type;location;lat;lon;timestamp;pressure;altitude;pressure_sealevel;temperature;humidity
63343;BME280;49465;57.664;39.686;2022-10-31T00:00:42;98185.34;;;2.67;65.22
63343;BME280;49465;57.664;39.686;2022-10-31T00:03:30;98189.81;;;2.65;65.88
63343;BME280;49465;57.664;39.686;2022-10-31T00:05:56;98188.75;;;2.55;65.43
63343;BME280;49465;57.664;39.686;2022-10-31T00:08:23;98175.28;;;2.50;65.71
63343;BME280;49465;57.664;39.686;2022-10-31T00:10:51;98187.63;;;2.59;66.00
63343;BME280;49465;57.664;39.686;2022-10-31T00:13:18;98178.28;;;2.44;65.48
63343;BME280;49465;57.664;39.686;2022-10-31T00:15:50;98175.47;;;2.47;65.08
63343;BME280;49465;57.664;39.686;2022-10-31T00:18:47;98181.59;;;2.58;65.65
63343;BME280;49465;57.664;39.686;2022-10-31T00:21:20;98184.69;;;2.51;65.60
63343;BME280;49465;57.664;39.686;2022-10-31T00:24:05;98175.19;;;2.64;65.36
63343;BME280;49465;57.664;39.686;2022-10-31T00:26:53;98177.19;;;2.73;65.31
63343;BME280;49465;57.664;39.686;2022-10-31T00:29:37;98174.69;;;2.72;64.71
63343;BME280;49465;57.664;39.686;2022-10-31T00:32:28;98177.19;;;2.73;65.02
63343;BME280;49465;57.664;39.686;2022-10-31T00:34:54;98186.63;;;2.74;64.39
63343;BME280;49465;57.664;39.686;2022-10-31T00:37:39;98177.78;;;2.64;64.79
63343;BME280;49465;57.664;39.686;2022-10-31T00:40:29;98176.91;;;2.51;64.59
63343;BME280;49465;57.664;39.686;2022-10-31T00:42:58;98181.28;;;2.50;64.68
63343;BME280;49465;57.664;39.686;2022-10-31T00:45:27;98181.09;;;2.53;64.87
63343;BME280;49465;57.664;39.686;2022-10-31T00:48:17;98173.72;;;2.47;64.84
63343;BME280;49465;57.664;39.686;2022-10-31T00:51:02;98180.44;;;2.50;65.01
63343;BME280;49465;57.664;39.686;2022-10-31T00:53:47;98182.91;;;2.38;65.02
63343;BME280;49465;57.664;39.686;2022-10-31T00:56:34;98178.19;;;2.45;64.90
63343;BME280;49465;57.664;39.686;2022-10-31T00:59:03;98185.72;;;2.48;64.88
63343;BME280;49465;57.664;39.686;2022-10-31T01:01:48;98177.69;;;2.53;64.34
63343;BME280;49465;57.664;39.686;2022-10-31T01:04:33;98184.25;;;2.31;65.51
63343;BME280;49465;57.664;39.686;2022-10-31T01:07:26;98181.28;;;2.50;65.10
63343;BME280;49465;57.664;39.686;2022-10-31T01:09:55;98186.81;;;2.31;65.00
63343;BME280;49465;57.664;39.686;2022-10-31T01:12:24;98188.47;;;2.32;65.46
63343;BME280;49465;57.664;39.686;2022-10-31T01:15:18;98197.84;;;2.48;65.41
63343;BME280;49465;57.664;39.686;2022-10-31T01:17:50;98194.31;;;2.49;65.30
63343;BME280;49465;57.664;39.686;2022-10-31T01:20:41;98194.22;;;2.50;65.33
63343;BME280;49465;57.664;39.686;2022-10-31T01:23:29;98195.78;;;2.53;64.88
63343;BME280;49465;57.664;39.686;2022-10-31T01:26:17;98204.88;;;2.46;65.00
63343;BME280;49465;57.664;39.686;2022-10-31T01:29:06;98204.03;;;2.45;65.02
63343;BME280;49465;57.664;39.686;2022-10-31T01:31:46;98205.69;;;2.46;65.52
63343;BME280;49465;57.664;39.686;2022-10-31T01:34:19;98205.59;;;2.48;65.19
63343;BME280;49465;57.664;39.686;2022-10-31T01:37:06;98200.09;;;2.40;65.04
63343;BME280;49465;57.664;39.686;2022-10-31T01:39:38;98213.28;;;2.35;65.62
63343;BME280;49465;57.664;39.686;2022-10-31T01:42:27;98214.22;;;2.61;64.83
63343;BME280;49465;57.664;39.686;2022-10-31T01:45:01;98216.97;;;2.45;65.10
63343;BME280;49465;57.664;39.686;2022-10-31T01:47:50;98219.00;;;2.40;65.15
63343;BME280;49465;57.664;39.686;2022-10-31T01:50:39;98227.81;;;2.37;65.21
63343;BME280;49465;57.664;39.686;2022-10-31T01:53:27;98224.50;;;2.35;64.92
63343;BME280;49465;57.664;39.686;2022-10-31T01:56:00;98234.44;;;2.42;65.24
63343;BME280;49465;57.664;39.686;2022-10-31T01:58:35;98227.19;;;2.47;64.74
63343;BME280;49465;57.664;39.686;2022-10-31T02:01:17;98238.03;;;2.39;65.15
63343;BME280;49465;57.664;39.686;2022-10-31T02:04:12;98247.41;;;2.54;64.58
63343;BME280;49465;57.664;39.686;2022-10-31T02:07:10;98244.09;;;2.52;64.36
63343;BME280;49465;57.664;39.686;2022-10-31T02:10:00;98253.47;;;2.41;65.01
63343;BME280;49465;57.664;39.686;2022-10-31T02:12:46;98258.19;;;2.34;64.28
63343;BME280;49465;57.664;39.686;2022-10-31T02:15:38;98263.56;;;2.58;64.45
63343;BME280;49465;57.664;39.686;2022-10-31T02:18:28;98266.00;;;2.47;63.75
63343;BME280;49465;57.664;39.686;2022-10-31T02:21:21;98263.56;;;2.31;64.48
63343;BME280;49465;57.664;39.686;2022-10-31T02:24:21;98272.63;;;2.65;63.94
63343;BME280;49465;57.664;39.686;2022-10-31T02:30:16;98284.03;;;2.48;64.67
63343;BME280;49465;57.664;39.686;2022-10-31T02:39:34;98298.56;;;2.64;63.91
63343;BME280;49465;57.664;39.686;2022-10-31T02:45:43;98309.06;;;2.48;64.05
63343;BME280;49465;57.664;39.686;2022-10-31T02:48:34;98311.50;;;2.36;64.21
63343;BME280;49465;57.664;39.686;2022-10-31T02:51:24;98307.16;;;2.23;64.42
63343;BME280;49465;57.664;39.686;2022-10-31T02:53:59;98323.78;;;2.33;64.26
63343;BME280;49465;57.664;39.686;2022-10-31T02:56:28;98325.84;;;2.28;64.90
63343;BME280;49465;57.664;39.686;2022-10-31T02:59:25;98333.38;;;2.45;64.58
63343;BME280;49465;57.664;39.686;2022-10-31T03:02:42;98339.00;;;2.52;64.15
63343;BME280;49465;57.664;39.686;2022-10-31T03:11:17;98350.47;;;2.19;64.72
63343;BME280;49465;57.664;39.686;2022-10-31T03:16:51;98357.69;;;2.28;64.87
63343;BME280;49465;57.664;39.686;2022-10-31T03:19:47;98362.84;;;2.43;65.00
63343;BME280;49465;57.664;39.686;2022-10-31T03:22:27;98370.50;;;2.44;64.65
63343;BME280;49465;57.664;39.686;2022-10-31T03:25:14;98375.34;;;2.22;65.09
63343;BME280;49465;57.664;39.686;2022-10-31T03:28:02;98386.88;;;2.30;64.97
63343;BME280;49465;57.664;39.686;2022-10-31T03:30:35;98389.03;;;2.80;63.21
63343;BME280;49465;57.664;39.686;2022-10-31T03:33:20;98397.13;;;2.46;64.59
63343;BME280;49465;57.664;39.686;2022-10-31T03:35:55;98407.41;;;2.33;64.56
63343;BME280;49465;57.664;39.686;2022-10-31T03:38:49;98411.63;;;2.34;65.10
63343;BME280;49465;57.664;39.686;2022-10-31T03:41:23;98420.66;;;2.27;65.21
63343;BME280;49465;57.664;39.686;2022-10-31T03:44:07;98419.88;;;2.41;64.72
63343;BME280;49465;57.664;39.686;2022-10-31T03:46:34;98422.88;;;2.19;65.17
63343;BME280;49465;57.664;39.686;2022-10-31T03:49:02;98426.31;;;2.20;65.12
63343;BME280;49465;57.664;39.686;2022-10-31T03:52:06;98433.88;;;2.37;65.54
63343;BME280;49465;57.664;39.686;2022-10-31T03:54:53;98442.38;;;2.39;64.95
63343;BME280;49465;57.664;39.686;2022-10-31T04:00:35;98480.72;;;2.32;65.08
63343;BME280;49465;57.664;39.686;2022-10-31T04:03:33;98464.84;;;2.38;65.38
63343;BME280;49465;57.664;39.686;2022-10-31T04:06:24;98478.50;;;2.26;65.38
63343;BME280;49465;57.664;39.686;2022-10-31T04:08:56;98488.66;;;2.29;64.98
63343;BME280;49465;57.664;39.686;2022-10-31T04:11:34;98492.00;;;2.31;65.31
63343;BME280;49465;57.664;39.686;2022-10-31T04:14:28;98503.84;;;2.35;65.49
63343;BME280;49465;57.664;39.686;2022-10-31T04:17:05;98511.00;;;2.30;65.04
63343;BME280;49465;57.664;39.686;2022-10-31T04:19:53;98502.59;;;2.27;65.42
63343;BME280;49465;57.664;39.686;2022-10-31T04:22:41;98521.28;;;2.32;65.60
63343;BME280;49465;57.664;39.686;2022-10-31T04:25:10;98522.56;;;2.25;64.98
63343;BME280;49465;57.664;39.686;2022-10-31T04:27:37;98520.03;;;2.23;65.29
63343;BME280;49465;57.664;39.686;2022-10-31T04:30:03;98510.72;;;2.21;65.48
63343;BME280;49465;57.664;39.686;2022-10-31T04:32:48;98517.56;;;2.22;65.35
63343;BME280;49465;57.664;39.686;2022-10-31T04:35:36;98522.84;;;2.34;65.29
63343;BME280;49465;57.664;39.686;2022-10-31T04:38:05;98539.31;;;2.33;65.29
63343;BME280;49465;57.664;39.686;2022-10-31T04:40:31;98539.81;;;2.24;65.30
63343;BME280;49465;57.664;39.686;2022-10-31T04:43:01;98546.03;;;2.36;64.96
63343;BME280;49465;57.664;39.686;2022-10-31T04:45:47;98562.81;;;2.29;64.97
63343;BME280;49465;57.664;39.686;2022-10-31T04:48:35;98570.41;;;2.32;64.84
63343;BME280;49465;57.664;39.686;2022-10-31T04:51:20;98569.69;;;2.30;65.28
63343;BME280;49465;57.664;39.686;2022-10-31T04:53:52;98582.16;;;2.37;64.83
63343;BME280;49465;57.664;39.686;2022-10-31T04:56:38;98574.78;;;2.31;64.69
63343;BME280;49465;57.664;39.686;2022-10-31T04:59:26;98586.97;;;2.44;64.73
63343;BME280;49465;57.664;39.686;2022-10-31T05:01:53;98598.13;;;2.30;65.24
63343;BME280;49465;57.664;39.686;2022-10-31T05:04:40;98613.00;;;2.41;65.11
63343;BME280;49465;57.664;39.686;2022-10-31T05:07:25;98613.38;;;2.34;64.83
63343;BME280;49465;57.664;39.686;2022-10-31T05:10:11;98625.22;;;2.38;64.79
63343;BME280;49465;57.664;39.686;2022-10-31T05:12:53;98628.94;;;2.49;64.89
63343;BME280;49465;57.664;39.686;2022-10-31T05:15:24;98642.56;;;2.36;65.24
63343;BME280;49465;57.664;39.686;2022-10-31T05:17:54;98647.81;;;2.35;64.99
63343;BME280;49465;57.664;39.686;2022-10-31T05:20:39;98656.75;;;2.29;64.94
63343;BME280;49465;57.664;39.686;2022-10-31T05:23:10;98670.13;;;2.37;64.42
63343;BME280;49465;57.664;39.686;2022-10-31T05:25:37;98670.56;;;2.30;64.34
63343;BME280;49465;57.664;39.686;2022-10-31T05:28:33;98695.78;;;2.41;64.69
63343;BME280;49465;57.664;39.686;2022-10-31T05:31:08;98703.41;;;2.44;64.50
63343;BME280;49465;57.664;39.686;2022-10-31T05:33:52;98705.47;;;2.37;64.65
63343;BME280;49465;57.664;39.686;2022-10-31T05:36:39;98696.00;;;2.37;64.58
63343;BME280;49465;57.664;39.686;2022-10-31T05:39:24;98704.56;;;2.38;64.11
63343;BME280;49465;57.664;39.686;2022-10-31T05:42:01;98712.06;;;2.43;64.45
63343;BME280;49465;57.664;39.686;2022-10-31T05:44:46;98721.09;;;2.35;64.74
63343;BME280;49465;57.664;39.686;2022-10-31T05:47:16;98722.59;;;2.40;64.16
63343;BME280;49465;57.664;39.686;2022-10-31T05:50:00;98730.19;;;2.43;64.62
63343;BME280;49465;57.664;39.686;2022-10-31T05:52:45;98731.47;;;2.35;64.22
63343;BME280;49465;57.664;39.686;2022-10-31T05:55:15;98737.78;;;2.46;64.61
63343;BME280;49465;57.664;39.686;2022-10-31T05:58:00;98741.38;;;2.43;64.78
63343;BME280;49465;57.664;39.686;2022-10-31T06:00:38;98755.63;;;2.50;64.39
63343;BME280;49465;57.664;39.686;2022-10-31T06:03:26;98765.41;;;2.45;64.74
63343;BME280;49465;57.664;39.686;2022-10-31T06:06:11;98763.47;;;2.49;64.91
63343;BME280;49465;57.664;39.686;2022-10-31T06:08:56;98767.56;;;2.53;63.96
63343;BME280;49465;57.664;39.686;2022-10-31T06:11:43;98772.75;;;2.53;64.19
63343;BME280;49465;57.664;39.686;2022-10-31T06:14:12;98774.47;;;2.52;64.08
63343;BME280;49465;57.664;39.686;2022-10-31T06:16:38;98787.34;;;2.54;64.56
63343;BME280;49465;57.664;39.686;2022-10-31T06:19:07;98788.50;;;2.64;64.90
63343;BME280;49465;57.664;39.686;2022-10-31T06:21:34;98791.50;;;2.56;65.04
63343;BME280;49465;57.664;39.686;2022-10-31T06:24:24;98795.16;;;2.68;64.27
63343;BME280;49465;57.664;39.686;2022-10-31T06:26:58;98793.16;;;2.73;64.78
63343;BME280;49465;57.664;39.686;2022-10-31T06:29:28;98789.44;;;2.63;64.30
63343;BME280;49465;57.664;39.686;2022-10-31T06:31:58;98796.03;;;2.69;63.95
63343;BME280;49465;57.664;39.686;2022-10-31T06:34:45;98800.84;;;2.75;64.73
63343;BME280;49465;57.664;39.686;2022-10-31T06:37:17;98795.16;;;2.68;64.49
63343;BME280;49465;57.664;39.686;2022-10-31T06:40:10;98801.53;;;2.79;64.20
63343;BME280;49465;57.664;39.686;2022-10-31T06:42:43;98798.75;;;2.82;64.52
63343;BME280;49465;57.664;39.686;2022-10-31T06:45:36;98805.25;;;2.89;64.14
63343;BME280;49465;57.664;39.686;2022-10-31T06:48:14;98806.44;;;2.83;64.28
63343;BME280;49465;57.664;39.686;2022-10-31T06:51:04;98806.19;;;2.72;64.45
63343;BME280;49465;57.664;39.686;2022-10-31T06:53:52;98809.72;;;2.55;65.71
63343;BME280;49465;57.664;39.686;2022-10-31T06:56:26;98798.50;;;2.70;64.82
63343;BME280;49465;57.664;39.686;2022-10-31T06:58:58;98795.44;;;2.64;64.39
63343;BME280;49465;57.664;39.686;2022-10-31T07:01:35;98800.03;;;2.74;65.06
63343;BME280;49465;57.664;39.686;2022-10-31T07:04:10;98798.84;;;2.64;64.60
63343;BME280;49465;57.664;39.686;2022-10-31T07:06:58;98793.09;;;2.59;64.84
63343;BME280;49465;57.664;39.686;2022-10-31T07:09:43;98782.84;;;2.42;65.39
63343;BME280;49465;57.664;39.686;2022-10-31T07:12:15;98798.19;;;2.61;64.64
63343;BME280;49465;57.664;39.686;2022-10-31T07:15:03;98802.03;;;2.69;64.11
63343;BME280;49465;57.664;39.686;2022-10-31T07:17:36;98798.69;;;2.67;64.81
63343;BME280;49465;57.664;39.686;2022-10-31T07:20:21;98793.19;;;2.57;64.52
63343;BME280;49465;57.664;39.686;2022-10-31T07:22:58;98802.34;;;2.79;64.60
63343;BME280;49465;57.664;39.686;2022-10-31T07:25:53;98796.00;;;2.85;64.70
63343;BME280;49465;57.664;39.686;2022-10-31T07:28:27;98797.44;;;2.74;65.02
63343;BME280;49465;57.664;39.686;2022-10-31T07:31:23;98813.19;;;2.86;64.28
63343;BME280;49465;57.664;39.686;2022-10-31T07:33:52;98792.81;;;2.80;64.77
63343;BME280;49465;57.664;39.686;2022-10-31T07:36:27;98800.41;;;2.83;64.77
63343;BME280;49465;57.664;39.686;2022-10-31T07:38:56;98813.03;;;2.73;65.05
63343;BME280;49465;57.664;39.686;2022-10-31T07:41:47;98814.66;;;2.90;64.61
63343;BME280;49465;57.664;39.686;2022-10-31T07:44:34;98832.59;;;2.79;64.88
63343;BME280;49465;57.664;39.686;2022-10-31T07:47:09;98860.06;;;2.65;65.18
63343;BME280;49465;57.664;39.686;2022-10-31T07:49:41;98862.63;;;2.65;65.68
63343;BME280;49465;57.664;39.686;2022-10-31T07:52:21;98890.16;;;2.82;65.01
63343;BME280;49465;57.664;39.686;2022-10-31T07:55:10;98910.66;;;2.71;65.49
63343;BME280;49465;57.664;39.686;2022-10-31T07:57:45;98911.97;;;2.78;65.40
63343;BME280;49465;57.664;39.686;2022-10-31T08:00:22;98918.91;;;2.77;65.71
63343;BME280;49465;57.664;39.686;2022-10-31T08:03:20;98928.09;;;2.99;65.33
63343;BME280;49465;57.664;39.686;2022-10-31T08:06:17;98920.59;;;2.94;64.80
63343;BME280;49465;57.664;39.686;2022-10-31T08:09:11;98925.78;;;2.79;65.70
63343;BME280;49465;57.664;39.686;2022-10-31T08:11:49;98930.09;;;2.94;65.97
63343;BME280;49465;57.664;39.686;2022-10-31T08:14:37;98923.34;;;2.91;64.73
63343;BME280;49465;57.664;39.686;2022-10-31T08:17:08;98916.06;;;2.82;65.30
63343;BME280;49465;57.664;39.686;2022-10-31T08:20:02;98917.91;;;2.96;65.41
63343;BME280;49465;57.664;39.686;2022-10-31T08:23:02;98904.84;;;3.13;64.77
63343;BME280;49465;57.664;39.686;2022-10-31T08:25:53;98910.97;;;2.96;64.98
63343;BME280;49465;57.664;39.686;2022-10-31T08:28:28;98917.00;;;2.97;64.84
63343;BME280;49465;57.664;39.686;2022-10-31T08:31:20;98911.03;;;3.11;64.79
63343;BME280;49465;57.664;39.686;2022-10-31T08:33:55;98914.75;;;2.91;65.75
63343;BME280;49465;57.664;39.686;2022-10-31T08:36:40;98908.81;;;2.89;65.63
63343;BME280;49465;57.664;39.686;2022-10-31T08:39:17;98913.72;;;3.09;65.29
63343;BME280;49465;57.664;39.686;2022-10-31T08:42:02;98915.97;;;3.00;65.59
63343;BME280;49465;57.664;39.686;2022-10-31T08:44:47;98909.13;;;2.99;65.67
63343;BME280;49465;57.664;39.686;2022-10-31T08:47:24;98910.03;;;3.13;65.70
63343;BME280;49465;57.664;39.686;2022-10-31T08:50:09;98899.16;;;3.23;65.42
63343;BME280;49465;57.664;39.686;2022-10-31T08:52:39;98917.75;;;2.99;66.18
63343;BME280;49465;57.664;39.686;2022-10-31T08:55:08;98912.72;;;3.12;66.05
63343;BME280;49465;57.664;39.686;2022-10-31T08:57:59;98907.28;;;3.16;66.26
63343;BME280;49465;57.664;39.686;2022-10-31T09:00:26;98910.56;;;3.04;66.44
63343;BME280;49465;57.664;39.686;2022-10-31T09:03:13;98906.06;;;3.08;66.23
63343;BME280;49465;57.664;39.686;2022-10-31T09:06:00;98904.22;;;3.10;65.99
63343;BME280;49465;57.664;39.686;2022-10-31T09:08:28;98899.03;;;3.10;66.15
63343;BME280;49465;57.664;39.686;2022-10-31T09:10:59;98900.34;;;3.17;66.16
63343;BME280;49465;57.664;39.686;2022-10-31T09:13:29;98903.69;;;3.19;66.15
63343;BME280;49465;57.664;39.686;2022-10-31T09:16:01;98902.69;;;3.22;66.75
63343;BME280;49465;57.664;39.686;2022-10-31T09:18:51;98901.00;;;3.21;66.78
63343;BME280;49465;57.664;39.686;2022-10-31T09:21:36;98891.06;;;3.13;66.34
63343;BME280;49465;57.664;39.686;2022-10-31T09:24:02;98887.81;;;3.09;67.35
63343;BME280;49465;57.664;39.686;2022-10-31T09:26:48;98881.38;;;3.16;66.58
63343;BME280;49465;57.664;39.686;2022-10-31T09:29:14;98888.06;;;3.21;66.18
63343;BME280;49465;57.664;39.686;2022-10-31T09:31:44;98887.31;;;3.19;67.26
63343;BME280;49465;57.664;39.686;2022-10-31T09:34:28;98883.97;;;3.16;67.04
63343;BME280;49465;57.664;39.686;2022-10-31T09:37:16;98907.69;;;3.25;66.78
63343;BME280;49465;57.664;39.686;2022-10-31T09:40:00;98893.97;;;3.23;66.41
63343;BME280;49465;57.664;39.686;2022-10-31T09:42:48;98886.56;;;3.16;66.69
63343;BME280;49465;57.664;39.686;2022-10-31T09:51:53;98898.53;;;3.49;66.16
63343;BME280;49465;57.664;39.686;2022-10-31T09:54:54;98892.44;;;3.34;67.01
63343;BME280;49465;57.664;39.686;2022-10-31T09:57:42;98895.69;;;3.08;67.62
63343;BME280;49465;57.664;39.686;2022-10-31T10:00:27;98895.59;;;3.09;67.10
63343;BME280;49465;57.664;39.686;2022-10-31T10:08:36;98904.38;;;3.07;68.41
63343;BME280;49465;57.664;39.686;2022-10-31T10:17:21;98904.34;;;3.23;68.07
63343;BME280;49465;57.664;39.686;2022-10-31T10:26:22;98916.03;;;3.30;67.97
63343;BME280;49465;57.664;39.686;2022-10-31T10:28:58;98920.63;;;3.25;67.27
63343;BME280;49465;57.664;39.686;2022-10-31T10:31:39;98924.38;;;3.35;67.13
63343;BME280;49465;57.664;39.686;2022-10-31T10:34:39;98936.91;;;3.27;68.10
63343;BME280;49465;57.664;39.686;2022-10-31T10:37:41;98931.00;;;3.25;68.22
63343;BME280;49465;57.664;39.686;2022-10-31T10:40:21;98940.25;;;3.29;68.25
63343;BME280;49465;57.664;39.686;2022-10-31T10:49:31;98944.00;;;3.39;68.32
63343;BME280;49465;57.664;39.686;2022-10-31T10:52:26;98948.56;;;3.20;68.67
63343;BME280;49465;57.664;39.686;2022-10-31T11:03:04;98966.44;;;3.24;68.82
63343;BME280;49465;57.664;39.686;2022-10-31T11:05:42;98967.25;;;3.25;68.97
63343;BME280;49465;57.664;39.686;2022-10-31T11:08:28;98969.34;;;3.34;68.61
63343;BME280;49465;57.664;39.686;2022-10-31T11:11:28;98980.28;;;3.39;68.59
63343;BME280;49465;57.664;39.686;2022-10-31T11:14:06;98981.72;;;3.29;69.03
63343;BME280;49465;57.664;39.686;2022-10-31T11:17:15;98995.06;;;3.37;68.65
63343;BME280;49465;57.664;39.686;2022-10-31T11:22:47;99002.22;;;3.17;69.35
63343;BME280;49465;57.664;39.686;2022-10-31T11:25:38;99010.22;;;3.29;69.28
63343;BME280;49465;57.664;39.686;2022-10-31T11:28:10;99009.66;;;3.24;69.35
63343;BME280;49465;57.664;39.686;2022-10-31T11:31:05;99009.03;;;3.34;69.28
63343;BME280;49465;57.664;39.686;2022-10-31T11:34:06;99019.94;;;3.41;69.26
63343;BME280;49465;57.664;39.686;2022-10-31T11:37:10;99019.16;;;3.39;69.39
63343;BME280;49465;57.664;39.686;2022-10-31T11:40:05;99026.84;;;3.25;70.21
63343;BME280;49465;57.664;39.686;2022-10-31T11:42:56;99033.03;;;3.38;69.59
63343;BME280;49465;57.664;39.686;2022-10-31T11:45:35;99032.28;;;3.36;69.80
63343;BME280;49465;57.664;39.686;2022-10-31T11:48:18;99037.88;;;3.44;69.82
63343;BME280;49465;57.664;39.686;2022-10-31T11:51:09;99036.53;;;3.37;69.31
63343;BME280;49465;57.664;39.686;2022-10-31T11:53:59;99038.38;;;3.35;69.54
63343;BME280;49465;57.664;39.686;2022-10-31T11:56:40;99040.66;;;3.57;69.25
63343;BME280;49465;57.664;39.686;2022-10-31T12:01:58;99043.56;;;3.51;69.15
63343;BME280;49465;57.664;39.686;2022-10-31T12:04:44;99056.69;;;3.48;69.77
63343;BME280;49465;57.664;39.686;2022-10-31T12:07:21;99064.38;;;3.33;69.56
63343;BME280;49465;57.664;39.686;2022-10-31T12:10:13;99065.28;;;3.48;69.80
63343;BME280;49465;57.664;39.686;2022-10-31T12:13:08;99066.97;;;3.49;70.04
63343;BME280;49465;57.664;39.686;2022-10-31T12:16:07;99075.84;;;3.45;70.05
63343;BME280;49465;57.664;39.686;2022-10-31T12:33:27;99103.75;;;3.72;68.54
63343;BME280;49465;57.664;39.686;2022-10-31T12:36:40;99113.13;;;3.74;68.61
63343;BME280;49465;57.664;39.686;2022-10-31T12:43:00;99130.00;;;3.82;68.49
63343;BME280;49465;57.664;39.686;2022-10-31T12:45:55;99126.34;;;3.70;69.29
63343;BME280;49465;57.664;39.686;2022-10-31T12:55:19;99155.25;;;3.78;68.67
63343;BME280;49465;57.664;39.686;2022-10-31T12:58:36;99163.50;;;3.86;69.13
63343;BME280;49465;57.664;39.686;2022-10-31T13:01:38;99174.44;;;3.75;69.33
63343;BME280;49465;57.664;39.686;2022-10-31T13:07:29;99189.81;;;3.63;70.29
63343;BME280;49465;57.664;39.686;2022-10-31T13:13:29;99187.41;;;3.91;69.56
63343;BME280;49465;57.664;39.686;2022-10-31T13:16:21;99190.75;;;3.78;69.61
63343;BME280;49465;57.664;39.686;2022-10-31T13:19:02;99188.00;;;3.81;69.70
63343;BME280;49465;57.664;39.686;2022-10-31T13:22:19;99193.19;;;3.81;68.95
63343;BME280;49465;57.664;39.686;2022-10-31T13:27:57;99203.72;;;3.93;69.10
63343;BME280;49465;57.664;39.686;2022-10-31T13:30:50;99209.97;;;3.89;69.55
63343;BME280;49465;57.664;39.686;2022-10-31T13:33:32;99215.84;;;3.77;70.31
63343;BME280;49465;57.664;39.686;2022-10-31T13:36:26;99213.84;;;3.98;69.86
63343;BME280;49465;57.664;39.686;2022-10-31T13:43:14;99221.13;;;4.07;69.74
63343;BME280;49465;57.664;39.686;2022-10-31T13:46:45;99227.72;;;4.13;68.89
63343;BME280;49465;57.664;39.686;2022-10-31T13:52:31;99222.13;;;4.05;70.22
63343;BME280;49465;57.664;39.686;2022-10-31T13:56:01;99234.75;;;4.11;70.18
63343;BME280;49465;57.664;39.686;2022-10-31T14:02:00;99256.38;;;4.27;69.65
63343;BME280;49465;57.664;39.686;2022-10-31T14:04:59;99253.78;;;4.27;69.00
63343;BME280;49465;57.664;39.686;2022-10-31T14:07:33;99256.53;;;4.08;70.07
63343;BME280;49465;57.664;39.686;2022-10-31T14:10:32;99263.91;;;4.16;69.87
63343;BME280;49465;57.664;39.686;2022-10-31T14:13:21;99268.00;;;4.20;69.89
63343;BME280;49465;57.664;39.686;2022-10-31T14:16:33;99268.00;;;4.36;69.29
63343;BME280;49465;57.664;39.686;2022-10-31T14:19:13;99282.63;;;4.21;69.57
63343;BME280;49465;57.664;39.686;2022-10-31T14:21:54;99253.25;;;4.05;69.56
63343;BME280;49465;57.664;39.686;2022-10-31T14:24:31;99287.66;;;4.24;69.71
63343;BME280;49465;57.664;39.686;2022-10-31T14:29:55;99287.81;;;4.21;69.66
63343;BME280;49465;57.664;39.686;2022-10-31T14:32:40;99293.34;;;4.15;70.13
63343;BME280;49465;57.664;39.686;2022-10-31T14:35:15;99297.97;;;4.26;69.73
63343;BME280;49465;57.664;39.686;2022-10-31T14:38:11;99302.41;;;4.40;69.78
63343;BME280;49465;57.664;39.686;2022-10-31T14:53:08;99317.19;;;4.06;70.05
63343;BME280;49465;57.664;39.686;2022-10-31T14:56:02;99327.59;;;4.22;69.98
63343;BME280;49465;57.664;39.686;2022-10-31T14:58:48;99328.16;;;4.11;69.54
63343;BME280;49465;57.664;39.686;2022-10-31T15:01:28;99335.19;;;4.25;70.03
63343;BME280;49465;57.664;39.686;2022-10-31T15:04:44;99344.09;;;4.36;69.62
63343;BME280;49465;57.664;39.686;2022-10-31T15:07:34;99349.59;;;4.14;69.55
63343;BME280;49465;57.664;39.686;2022-10-31T15:10:29;99357.31;;;4.16;69.82
63343;BME280;49465;57.664;39.686;2022-10-31T15:13:21;99352.69;;;4.21;69.98
63343;BME280;49465;57.664;39.686;2022-10-31T15:15:53;99365.84;;;4.18;70.16
63343;BME280;49465;57.664;39.686;2022-10-31T15:18:28;99365.16;;;4.14;70.23
63343;BME280;49465;57.664;39.686;2022-10-31T15:21:21;99374.09;;;4.09;70.37
63343;BME280;49465;57.664;39.686;2022-10-31T15:24:18;99370.78;;;4.23;69.95
63343;BME280;49465;57.664;39.686;2022-10-31T15:26:51;99379.56;;;4.20;69.80
63343;BME280;49465;57.664;39.686;2022-10-31T15:29:21;99385.91;;;4.14;70.24
63343;BME280;49465;57.664;39.686;2022-10-31T15:32:31;99380.75;;;4.30;69.55
63343;BME280;49465;57.664;39.686;2022-10-31T15:35:30;99387.50;;;4.17;70.16
63343;BME280;49465;57.664;39.686;2022-10-31T15:37:58;99391.75;;;4.02;69.97
63343;BME280;49465;57.664;39.686;2022-10-31T15:40:30;99393.78;;;4.13;70.49
63343;BME280;49465;57.664;39.686;2022-10-31T15:43:17;99402.34;;;3.97;70.42
63343;BME280;49465;57.664;39.686;2022-10-31T15:46:09;99404.16;;;4.13;70.60
63343;BME280;49465;57.664;39.686;2022-10-31T15:48:54;99404.78;;;4.01;69.90
63343;BME280;49465;57.664;39.686;2022-10-31T15:51:39;99417.38;;;4.08;69.75
63343;BME280;49465;57.664;39.686;2022-10-31T15:54:29;99418.06;;;4.12;69.90
63343;BME280;49465;57.664;39.686;2022-10-31T15:57:21;99429.09;;;4.15;69.84
63343;BME280;49465;57.664;39.686;2022-10-31T16:00:06;99428.75;;;4.06;70.19
63343;BME280;49465;57.664;39.686;2022-10-31T16:06:04;99442.59;;;4.22;69.76
63343;BME280;49465;57.664;39.686;2022-10-31T16:14:18;99463.66;;;4.33;69.55
63343;BME280;49465;57.664;39.686;2022-10-31T16:16:53;99463.19;;;4.25;69.14
63343;BME280;49465;57.664;39.686;2022-10-31T16:19:31;99469.63;;;4.18;70.44
63343;BME280;49465;57.664;39.686;2022-10-31T16:22:14;99462.13;;;4.29;69.61
63343;BME280;49465;57.664;39.686;2022-10-31T16:24:54;99476.84;;;4.29;69.43
63343;BME280;49465;57.664;39.686;2022-10-31T16:27:35;99474.19;;;4.30;69.38
63343;BME280;49465;57.664;39.686;2022-10-31T16:32:58;99485.19;;;4.18;69.88
63343;BME280;49465;57.664;39.686;2022-10-31T16:35:54;99484.41;;;4.33;69.51
63343;BME280;49465;57.664;39.686;2022-10-31T16:38:39;99478.69;;;4.27;68.68
63343;BME280;49465;57.664;39.686;2022-10-31T16:41:33;99481.97;;;4.13;69.01
63343;BME280;49465;57.664;39.686;2022-10-31T16:44:40;99493.19;;;4.13;69.22
63343;BME280;49465;57.664;39.686;2022-10-31T16:47:18;99484.66;;;4.11;69.63